createdAt,value
2023-03-15T00:02:07.492Z,86.70
2023-03-15T00:04:37.203Z,86.16
2023-03-15T00:07:06.042Z,85.60
2023-03-15T00:09:36.462Z,85.08
2023-03-15T00:12:06.034Z,84.23
2023-03-15T00:14:35.103Z,84.22
2023-03-15T00:17:03.884Z,83.60
2023-03-15T00:19:32.935Z,83.51
2023-03-15T00:22:01.864Z,82.97
2023-03-15T00:24:30.929Z,81.70
2023-03-15T00:27:01.218Z,81.64
2023-03-15T00:29:30.517Z,81.30
2023-03-15T00:31:59.496Z,81.12
2023-03-15T00:34:28.620Z,80.30
2023-03-15T00:36:57.368Z,76.96
2023-03-15T00:39:26.628Z,75.32
2023-03-15T00:41:57.177Z,75.99
2023-03-15T00:44:29.205Z,77.00
2023-03-15T00:46:57.998Z,77.16
2023-03-15T00:49:27.253Z,75.43
2023-03-15T00:51:56.739Z,73.93
2023-03-15T00:54:25.793Z,74.69
2023-03-15T00:56:54.709Z,75.92
2023-03-15T00:59:23.811Z,77.63
2023-03-15T01:01:54.069Z,77.46
2023-03-15T01:04:24.543Z,77.74
2023-03-15T01:06:53.437Z,78.73
2023-03-15T01:09:23.358Z,80.23
2023-03-15T01:11:52.628Z,82.22
2023-03-15T01:14:21.745Z,83.83
2023-03-15T01:16:50.620Z,85.36
2023-03-15T01:19:21.129Z,87.12
2023-03-15T01:21:49.991Z,87.62
2023-03-15T01:24:19.750Z,87.88
2023-03-15T01:26:50.773Z,87.25
2023-03-15T01:29:19.933Z,84.64
2023-03-15T01:31:48.862Z,82.75
2023-03-15T01:34:20.155Z,79.83
2023-03-15T01:36:52.453Z,80.65
2023-03-15T01:39:22.959Z,81.53
2023-03-15T01:41:51.836Z,82.16
2023-03-15T01:44:24.175Z,82.36
2023-03-15T01:46:53.765Z,82.49
2023-03-15T01:49:31.995Z,82.44
2023-03-15T01:52:07.388Z,82.47
2023-03-15T01:55:06.315Z,81.05
2023-03-15T01:57:40.201Z,81.20
2023-03-15T02:00:16.867Z,81.63
2023-03-15T02:03:02.058Z,81.38
2023-03-15T02:05:46.136Z,81.02
2023-03-15T02:08:24.298Z,81.36
2023-03-15T02:10:58.737Z,79.61
2023-03-15T02:13:30.726Z,79.41
2023-03-15T02:16:06.935Z,79.47
2023-03-15T02:18:43.451Z,79.03
2023-03-15T02:21:34.151Z,78.82
2023-03-15T02:24:26.013Z,78.95
2023-03-15T02:26:58.303Z,78.13
2023-03-15T02:29:31.092Z,77.59
2023-03-15T02:32:01.192Z,76.06
2023-03-15T02:34:30.027Z,76.55
2023-03-15T02:36:59.417Z,75.22
2023-03-15T02:39:29.387Z,74.37
2023-03-15T02:42:00.166Z,74.86
2023-03-15T02:44:37.557Z,74.92
2023-03-15T02:47:12.323Z,75.17
2023-03-15T02:49:44.661Z,75.46
2023-03-15T02:52:14.832Z,75.75
2023-03-15T02:54:44.096Z,75.84
2023-03-15T02:57:15.898Z,75.68
2023-03-15T02:59:50.875Z,75.58
2023-03-15T03:02:20.722Z,75.86
2023-03-15T03:04:49.906Z,75.38
2023-03-15T03:07:20.916Z,75.47
2023-03-15T03:10:04.184Z,75.76
2023-03-15T03:12:42.403Z,75.83
2023-03-15T03:15:13.420Z,75.41
2023-03-15T03:17:43.159Z,75.38
2023-03-15T03:20:14.953Z,75.26
2023-03-15T03:22:48.305Z,75.28
2023-03-15T03:25:19.455Z,75.72
2023-03-15T03:27:49.872Z,75.93
2023-03-15T03:30:20.269Z,76.51
2023-03-15T03:32:53.257Z,76.11
2023-03-15T03:35:23.278Z,76.23
2023-03-15T03:37:53.945Z,76.66
2023-03-15T03:40:29.226Z,76.83
2023-03-15T03:42:58.351Z,77.09
2023-03-15T03:45:28.506Z,77.30
2023-03-15T03:48:00.779Z,76.64
2023-03-15T03:50:30.036Z,77.09
2023-03-15T03:52:59.189Z,76.90
2023-03-15T03:55:34.033Z,76.89
2023-03-15T03:58:03.133Z,77.29
2023-03-15T04:00:55.502Z,76.91
2023-03-15T04:03:28.331Z,76.79
2023-03-15T04:06:06.466Z,76.93
2023-03-15T04:08:41.151Z,76.91
2023-03-15T04:11:12.559Z,76.62
2023-03-15T04:13:43.171Z,76.76
2023-03-15T04:16:14.685Z,76.80
2023-03-15T04:19:06.412Z,76.37
2023-03-15T04:21:37.222Z,76.30
2023-03-15T04:24:36.122Z,76.29
2023-03-15T04:27:14.908Z,76.16
2023-03-15T04:30:14.317Z,76.29
2023-03-15T04:32:47.119Z,75.71
2023-03-15T04:35:42.722Z,76.16
2023-03-15T04:38:32.409Z,75.64
2023-03-15T04:41:27.074Z,75.45
2023-03-15T04:44:19.078Z,75.42
2023-03-15T04:46:48.185Z,75.71
2023-03-15T04:49:32.391Z,76.06
2023-03-15T04:52:19.903Z,75.36
2023-03-15T04:55:12.299Z,75.59
2023-03-15T04:57:58.696Z,75.30
2023-03-15T05:00:46.532Z,75.00
2023-03-15T05:03:31.613Z,74.99
2023-03-15T05:06:21.734Z,74.74
2023-03-15T05:09:08.116Z,74.44
2023-03-15T05:11:36.878Z,73.38
2023-03-15T05:14:15.084Z,72.11
2023-03-15T05:17:05.277Z,70.31
2023-03-15T05:19:49.835Z,69.30
2023-03-15T05:22:32.848Z,68.96
2023-03-15T05:25:20.678Z,68.49
2023-03-15T05:28:07.701Z,68.93
2023-03-15T05:31:03.623Z,69.16
2023-03-15T05:33:54.543Z,69.61
2023-03-15T05:36:48.509Z,69.66
2023-03-15T05:39:34.766Z,70.69
2023-03-15T05:42:27.708Z,70.80
2023-03-15T05:44:59.556Z,70.96
2023-03-15T05:47:54.020Z,70.50
2023-03-15T05:50:29.105Z,69.93
2023-03-15T05:53:08.778Z,69.39
2023-03-15T05:55:48.620Z,68.99
2023-03-15T05:58:40.079Z,68.77
2023-03-15T06:01:14.678Z,68.27
2023-03-15T06:04:03.753Z,68.25
2023-03-15T06:06:34.258Z,67.84
2023-03-15T06:09:05.895Z,67.27
2023-03-15T06:11:36.484Z,67.49
2023-03-15T06:14:06.556Z,66.86
2023-03-15T06:16:51.382Z,67.05
2023-03-15T06:19:21.755Z,67.25
2023-03-15T06:21:51.729Z,66.39
2023-03-15T06:24:56.129Z,66.60
2023-03-15T06:27:27.486Z,66.54
2023-03-15T06:29:58.656Z,66.38
2023-03-15T06:32:27.805Z,65.56
2023-03-15T06:34:57.099Z,65.90
2023-03-15T06:37:35.137Z,65.77
2023-03-15T06:40:08.883Z,65.69
2023-03-15T06:42:41.742Z,66.10
2023-03-15T06:45:16.424Z,66.10
2023-03-15T06:47:47.065Z,65.99
2023-03-15T06:50:18.322Z,65.88
2023-03-15T06:52:47.147Z,65.91
2023-03-15T06:55:18.326Z,65.30
2023-03-15T06:57:48.893Z,65.65
2023-03-15T07:00:19.411Z,64.47
2023-03-15T07:02:48.308Z,64.67
2023-03-15T07:05:18.093Z,65.25
2023-03-15T07:07:46.878Z,64.73
2023-03-15T07:10:16.006Z,65.38
2023-03-15T07:12:44.794Z,65.08
2023-03-15T07:15:17.224Z,64.55
2023-03-15T07:17:46.311Z,65.11
2023-03-15T07:20:15.417Z,64.09
2023-03-15T07:22:45.622Z,64.07
2023-03-15T07:25:14.814Z,64.54
2023-03-15T07:27:43.585Z,63.84
2023-03-15T07:30:15.515Z,63.54
2023-03-15T07:32:44.432Z,64.00
2023-03-15T07:35:13.852Z,63.76
2023-03-15T07:37:44.718Z,63.46
2023-03-15T07:40:16.337Z,63.91
2023-03-15T07:42:46.032Z,64.39
2023-03-15T07:45:17.545Z,63.82
2023-03-15T07:47:46.360Z,64.33
2023-03-15T07:50:17.346Z,64.68
2023-03-15T07:52:46.236Z,64.20
2023-03-15T07:55:15.665Z,65.36
2023-03-15T07:57:44.492Z,65.04
2023-03-15T08:00:16.735Z,64.38
2023-03-15T08:02:45.977Z,64.06
2023-03-15T08:05:15.737Z,63.09
2023-03-15T08:07:44.748Z,62.99
2023-03-15T08:10:14.958Z,62.79
2023-03-15T08:12:44.849Z,62.73
2023-03-15T08:15:16.707Z,62.03
2023-03-15T08:17:45.957Z,60.88
2023-03-15T08:20:17.804Z,59.11
2023-03-15T08:22:47.984Z,58.59
2023-03-15T08:25:20.936Z,58.30
2023-03-15T08:27:50.331Z,56.65
2023-03-15T08:30:22.654Z,55.85
2023-03-15T08:32:52.992Z,56.72
2023-03-15T08:35:23.707Z,56.33
2023-03-15T08:37:52.664Z,57.42
2023-03-15T08:40:25.504Z,58.55
2023-03-15T08:43:13.041Z,59.17
2023-03-15T08:46:01.896Z,59.01
2023-03-15T08:48:31.616Z,59.18
2023-03-15T08:51:04.563Z,59.27
2023-03-15T08:53:33.849Z,59.66
2023-03-15T08:56:04.068Z,59.10
2023-03-15T08:58:32.969Z,59.14
2023-03-15T09:01:04.971Z,59.12
2023-03-15T09:03:34.414Z,58.48
2023-03-15T09:06:03.551Z,56.58
2023-03-15T09:08:33.581Z,56.39
2023-03-15T09:11:03.911Z,56.33
2023-03-15T09:13:32.830Z,56.48
2023-03-15T09:16:04.080Z,57.13
2023-03-15T09:18:34.072Z,55.97
2023-03-15T09:21:03.359Z,56.33
2023-03-15T09:23:32.313Z,57.17
2023-03-15T09:26:01.415Z,56.67
2023-03-15T09:28:30.553Z,56.55
2023-03-15T09:31:00.133Z,55.86
2023-03-15T09:33:33.244Z,55.37
2023-03-15T09:36:02.388Z,53.93
2023-03-15T09:38:31.215Z,53.85
2023-03-15T09:41:04.324Z,53.23
2023-03-15T09:43:50.780Z,52.94
2023-03-15T09:46:31.015Z,51.60
2023-03-15T09:49:13.455Z,52.10
2023-03-15T09:51:51.064Z,51.42
2023-03-15T09:54:27.688Z,49.72
2023-03-15T09:57:02.561Z,49.40
2023-03-15T09:59:36.314Z,46.94
2023-03-15T10:02:23.025Z,45.10
2023-03-15T10:04:59.218Z,43.87
2023-03-15T10:07:28.538Z,43.54
2023-03-15T10:09:59.068Z,43.66
2023-03-15T10:12:40.787Z,45.11
2023-03-15T10:15:36.501Z,44.42
2023-03-15T10:18:32.658Z,42.21
2023-03-15T10:21:13.459Z,41.69
2023-03-15T10:23:51.592Z,40.87
2023-03-15T10:26:29.387Z,41.23
2023-03-15T10:28:58.961Z,42.03
2023-03-15T10:31:46.458Z,43.73
2023-03-15T10:34:17.179Z,43.21
2023-03-15T10:36:50.432Z,43.63
2023-03-15T10:39:19.666Z,44.02
2023-03-15T10:41:50.935Z,43.85
2023-03-15T10:44:23.923Z,45.01
2023-03-15T10:47:21.469Z,46.04
2023-03-15T10:49:51.917Z,47.03
2023-03-15T10:52:35.714Z,47.41
2023-03-15T10:55:15.184Z,48.42
2023-03-15T10:57:56.008Z,48.56
2023-03-15T11:00:31.179Z,48.95
2023-03-15T11:03:06.711Z,49.30
2023-03-15T11:05:43.749Z,49.36
2023-03-15T11:08:17.304Z,49.94
2023-03-15T11:10:48.539Z,49.29
2023-03-15T11:13:22.598Z,48.50
2023-03-15T11:16:06.202Z,46.96
2023-03-15T11:18:44.083Z,45.73
2023-03-15T11:21:18.519Z,44.89
2023-03-15T11:23:52.556Z,43.54
2023-03-15T11:26:33.152Z,43.22
2023-03-15T11:29:07.475Z,43.78
2023-03-15T11:31:37.714Z,43.84
2023-03-15T11:34:13.687Z,45.34
2023-03-15T11:36:55.665Z,45.17
2023-03-15T11:39:45.718Z,45.36
2023-03-15T11:42:32.027Z,45.30
2023-03-15T11:45:10.867Z,46.17
2023-03-15T11:47:48.623Z,46.53
2023-03-15T11:50:18.837Z,44.40
2023-03-15T11:52:51.535Z,43.62
2023-03-15T11:55:27.014Z,44.10
2023-03-15T11:57:58.049Z,43.34
2023-03-15T12:00:54.867Z,41.88
2023-03-15T12:03:36.892Z,41.51
2023-03-15T12:06:38.201Z,40.46
2023-03-15T12:09:52.068Z,39.28
2023-03-15T12:12:47.288Z,39.72
2023-03-15T12:15:49.637Z,40.51
2023-03-15T12:18:28.862Z,40.11
2023-03-15T12:21:15.854Z,41.21
2023-03-15T12:23:59.590Z,41.42
2023-03-15T12:26:43.455Z,40.70
2023-03-15T12:29:24.345Z,41.64
2023-03-15T12:32:07.679Z,42.14
2023-03-15T12:34:49.008Z,42.75
2023-03-15T12:37:28.077Z,43.67
2023-03-15T12:40:24.100Z,45.14
2023-03-15T12:43:04.771Z,46.22
2023-03-15T12:45:45.676Z,46.01
2023-03-15T12:48:29.999Z,46.99
2023-03-15T12:51:05.774Z,47.82
2023-03-15T12:53:50.527Z,46.91
2023-03-15T12:56:50.674Z,47.38
2023-03-15T12:59:33.060Z,48.39
2023-03-15T13:02:35.954Z,48.11
2023-03-15T13:05:21.709Z,48.11
2023-03-15T13:07:58.413Z,48.44
2023-03-15T13:10:57.334Z,48.41
2023-03-15T13:13:46.988Z,48.46
2023-03-15T13:16:31.132Z,47.48
2023-03-15T13:19:18.131Z,48.69
2023-03-15T13:22:12.231Z,48.58
2023-03-15T13:24:53.568Z,48.40
2023-03-15T13:27:44.560Z,49.61
2023-03-15T13:30:34.311Z,48.93
2023-03-15T13:33:15.918Z,49.17
2023-03-15T13:35:49.615Z,49.55
2023-03-15T13:38:33.220Z,49.12
2023-03-15T13:41:05.729Z,49.64
2023-03-15T13:43:38.711Z,49.48
2023-03-15T13:46:08.028Z,49.70
2023-03-15T13:48:41.512Z,49.82
2023-03-15T13:51:22.815Z,49.95
2023-03-15T13:53:57.419Z,48.69
2023-03-15T13:56:47.039Z,48.54
2023-03-15T13:59:19.950Z,49.02
2023-03-15T14:01:54.390Z,48.75
2023-03-15T14:04:26.003Z,49.46
2023-03-15T14:07:24.398Z,49.58
2023-03-15T14:10:27.326Z,49.99
2023-03-15T14:12:58.434Z,49.11
2023-03-15T14:15:37.369Z,49.01
2023-03-15T14:18:20.606Z,49.52
2023-03-15T14:20:59.973Z,49.05
2023-03-15T14:23:31.902Z,48.82
2023-03-15T14:26:19.668Z,48.78
2023-03-15T14:28:56.525Z,49.42
2023-03-15T14:31:32.333Z,50.00
2023-03-15T14:34:10.275Z,50.13
2023-03-15T14:36:45.228Z,50.38
2023-03-15T14:39:26.449Z,50.15
2023-03-15T14:41:55.829Z,50.19
2023-03-15T14:44:24.720Z,50.44
2023-03-15T14:46:54.128Z,50.58
2023-03-15T14:49:26.369Z,51.24
2023-03-15T14:52:02.013Z,49.63
2023-03-15T14:54:34.071Z,49.76
2023-03-15T14:57:03.145Z,48.82
2023-03-15T14:59:31.993Z,48.89
2023-03-15T15:02:03.046Z,49.10
2023-03-15T15:04:37.637Z,48.87
2023-03-15T15:07:07.030Z,49.07
2023-03-15T15:09:40.077Z,49.58
2023-03-15T15:12:12.512Z,48.53
2023-03-15T15:14:42.786Z,48.40
2023-03-15T15:17:12.192Z,48.39
2023-03-15T15:19:41.022Z,48.58
2023-03-15T15:22:12.326Z,49.06
2023-03-15T15:25:00.995Z,50.22
2023-03-15T15:27:30.132Z,50.31
2023-03-15T15:29:58.927Z,50.84
2023-03-15T15:32:28.034Z,50.90
2023-03-15T15:34:57.016Z,51.19
2023-03-15T15:37:26.847Z,51.00
2023-03-15T15:39:55.847Z,51.44
2023-03-15T15:42:26.312Z,51.43
2023-03-15T15:44:55.279Z,50.60
2023-03-15T15:47:24.420Z,50.38
2023-03-15T15:49:53.216Z,50.20
2023-03-15T15:52:22.864Z,50.49
2023-03-15T15:54:51.711Z,50.37
2023-03-15T15:57:26.670Z,50.86
2023-03-15T15:59:56.813Z,50.49
2023-03-15T16:02:26.020Z,50.45
2023-03-15T16:04:55.247Z,50.41
2023-03-15T16:07:25.759Z,50.64
2023-03-15T16:09:59.027Z,51.31
2023-03-15T16:12:29.032Z,50.73
2023-03-15T16:14:59.230Z,50.47
2023-03-15T16:17:28.624Z,50.25
2023-03-15T16:19:57.404Z,49.60
2023-03-15T16:22:27.175Z,49.64
2023-03-15T16:25:01.474Z,49.86
2023-03-15T16:27:31.291Z,49.71
2023-03-15T16:30:02.864Z,49.90
2023-03-15T16:32:44.090Z,50.34
2023-03-15T16:35:15.637Z,50.05
2023-03-15T16:37:47.092Z,50.22
2023-03-15T16:40:23.146Z,50.60
2023-03-15T16:42:52.365Z,51.29
2023-03-15T16:45:22.897Z,51.14
2023-03-15T16:47:52.511Z,51.13
2023-03-15T16:50:21.847Z,51.27
2023-03-15T16:52:55.920Z,51.63
2023-03-15T16:55:28.645Z,51.40
2023-03-15T16:57:58.629Z,51.96
2023-03-15T17:00:30.872Z,52.05
2023-03-15T17:03:01.675Z,52.53
2023-03-15T17:05:33.015Z,52.49
2023-03-15T17:08:02.484Z,53.16
2023-03-15T17:10:33.489Z,53.32
2023-03-15T17:13:04.008Z,53.56
2023-03-15T17:15:34.314Z,53.56
2023-03-15T17:18:03.653Z,53.76
2023-03-15T17:20:32.631Z,54.09
2023-03-15T17:23:05.446Z,54.24
2023-03-15T17:25:35.366Z,54.09
2023-03-15T17:28:05.891Z,54.67
2023-03-15T17:30:38.354Z,55.08
2023-03-15T17:33:08.874Z,54.79
2023-03-15T17:35:41.901Z,54.82
2023-03-15T17:38:20.004Z,55.36
2023-03-15T17:40:49.967Z,55.36
2023-03-15T17:43:19.287Z,55.42
2023-03-15T17:45:49.453Z,56.58
2023-03-15T17:48:18.509Z,57.36
2023-03-15T17:50:47.415Z,57.14
2023-03-15T17:53:19.326Z,57.22
2023-03-15T17:55:49.219Z,57.92
2023-03-15T17:58:21.265Z,57.71
2023-03-15T18:00:54.626Z,58.80
2023-03-15T18:03:25.260Z,58.73
2023-03-15T18:05:54.782Z,58.51
2023-03-15T18:08:24.929Z,58.93
2023-03-15T18:10:54.349Z,59.15
2023-03-15T18:13:26.350Z,59.55
2023-03-15T18:15:56.838Z,60.55
2023-03-15T18:18:26.004Z,61.37
2023-03-15T18:20:55.243Z,61.89
2023-03-15T18:23:24.374Z,60.90
2023-03-15T18:25:53.324Z,61.48
2023-03-15T18:28:22.472Z,61.60
2023-03-15T18:30:51.254Z,61.79
2023-03-15T18:33:21.794Z,61.96
2023-03-15T18:35:50.759Z,62.82
2023-03-15T18:38:19.830Z,63.61
2023-03-15T18:40:51.147Z,63.71
2023-03-15T18:43:20.426Z,63.90
2023-03-15T18:45:49.302Z,63.83
2023-03-15T18:48:22.869Z,64.48
2023-03-15T18:50:57.968Z,64.04
2023-03-15T18:53:27.503Z,64.46
2023-03-15T18:55:56.261Z,65.11
2023-03-15T18:58:25.480Z,64.62
2023-03-15T19:00:54.680Z,65.20
2023-03-15T19:03:23.798Z,65.66
2023-03-15T19:05:53.627Z,65.42
2023-03-15T19:08:24.099Z,65.10
2023-03-15T19:10:59.842Z,65.63
2023-03-15T19:13:29.684Z,65.66
2023-03-15T19:15:58.588Z,65.65
2023-03-15T19:18:27.743Z,66.06
2023-03-15T19:20:56.632Z,65.93
2023-03-15T19:23:27.431Z,66.11
2023-03-15T19:25:56.289Z,66.71
2023-03-15T19:28:25.377Z,67.45
2023-03-15T19:30:54.460Z,67.91
2023-03-15T19:33:23.681Z,67.56
2023-03-15T19:35:53.406Z,67.72
2023-03-15T19:38:22.836Z,67.52
2023-03-15T19:40:55.294Z,68.03
2023-03-15T19:43:24.632Z,68.43
2023-03-15T19:45:53.619Z,67.93
2023-03-15T19:48:22.799Z,68.46
2023-03-15T19:50:51.671Z,68.11
2023-03-15T19:53:20.847Z,68.80
2023-03-15T19:55:49.887Z,68.67
2023-03-15T19:58:20.331Z,68.54
2023-03-15T20:00:52.049Z,68.84
2023-03-15T20:03:21.215Z,69.09
2023-03-15T20:05:50.004Z,68.39
2023-03-15T20:08:19.108Z,69.16
2023-03-15T20:10:48.628Z,69.81
2023-03-15T20:13:19.120Z,70.35
2023-03-15T20:15:47.919Z,70.00
2023-03-15T20:18:18.403Z,70.26
2023-03-15T20:20:47.254Z,69.31
2023-03-15T20:23:16.339Z,69.31
2023-03-15T20:25:45.412Z,69.37
2023-03-15T20:28:14.777Z,69.84
2023-03-15T20:30:45.441Z,69.83
2023-03-15T20:33:14.685Z,70.24
2023-03-15T20:35:43.512Z,70.53
2023-03-15T20:38:13.321Z,71.27
2023-03-15T20:40:42.254Z,70.97
2023-03-15T20:43:12.412Z,70.95
2023-03-15T20:45:41.270Z,70.89
2023-03-15T20:48:12.198Z,70.84
2023-03-15T20:50:41.774Z,70.78
2023-03-15T20:53:10.854Z,70.61
2023-03-15T20:55:39.731Z,71.72
2023-03-15T20:58:08.841Z,71.89
2023-03-15T21:00:40.928Z,71.74
2023-03-15T21:03:13.396Z,71.23
2023-03-15T21:05:43.587Z,71.85
2023-03-15T21:08:14.440Z,72.02
2023-03-15T21:10:43.309Z,71.95
2023-03-15T21:13:12.430Z,71.31
2023-03-15T21:15:45.955Z,71.45
2023-03-15T21:18:18.590Z,71.50
2023-03-15T21:20:47.589Z,70.95
2023-03-15T21:23:16.648Z,70.81
2023-03-15T21:25:45.610Z,71.18
2023-03-15T21:28:14.816Z,70.94
2023-03-15T21:30:43.547Z,71.17
2023-03-15T21:33:12.612Z,71.08
2023-03-15T21:35:43.110Z,71.35
2023-03-15T21:38:12.231Z,70.87
2023-03-15T21:40:41.053Z,71.22
2023-03-15T21:43:10.396Z,71.15
2023-03-15T21:45:39.766Z,70.91
2023-03-15T21:48:09.767Z,71.03
2023-03-15T21:50:38.597Z,71.10
2023-03-15T21:53:09.054Z,70.59
2023-03-15T21:55:38.573Z,70.60
2023-03-15T21:58:07.623Z,70.80
2023-03-15T22:00:36.613Z,70.28
2023-03-15T22:03:05.990Z,70.72
2023-03-15T22:05:35.716Z,70.39
2023-03-15T22:08:04.856Z,70.58
2023-03-15T22:10:35.085Z,70.73
2023-03-15T22:13:04.305Z,71.16
2023-03-15T22:15:33.922Z,71.23
2023-03-15T22:18:03.320Z,71.59
2023-03-15T22:20:32.319Z,71.36
2023-03-15T22:23:04.828Z,71.84
2023-03-15T22:25:35.352Z,71.55
2023-03-15T22:28:04.395Z,72.05
2023-03-15T22:30:33.916Z,71.99
2023-03-15T22:33:03.124Z,72.15
2023-03-15T22:35:32.941Z,72.18
2023-03-15T22:38:10.155Z,72.31
2023-03-15T22:40:43.018Z,72.38
2023-03-15T22:43:12.164Z,72.65
2023-03-15T22:45:41.559Z,72.19
2023-03-15T22:48:10.606Z,72.45
2023-03-15T22:50:39.497Z,72.53
2023-03-15T22:53:08.599Z,72.63
2023-03-15T22:55:37.391Z,72.51
2023-03-15T22:58:07.846Z,72.73
2023-03-15T23:00:36.592Z,72.98
2023-03-15T23:03:05.655Z,72.85
2023-03-15T23:05:35.690Z,72.68
2023-03-15T23:08:05.812Z,72.96
2023-03-15T23:10:34.694Z,72.96
2023-03-15T23:13:03.880Z,72.95
2023-03-15T23:15:34.146Z,73.64
2023-03-15T23:18:03.220Z,73.10
2023-03-15T23:20:32.603Z,73.52
2023-03-15T23:23:01.821Z,73.20
2023-03-15T23:25:30.789Z,73.23
2023-03-15T23:27:59.874Z,73.33
2023-03-15T23:30:33.855Z,73.38
2023-03-15T23:33:07.974Z,73.38
2023-03-15T23:35:37.151Z,73.48
2023-03-15T23:38:06.290Z,73.63
2023-03-15T23:40:35.194Z,73.40
2023-03-15T23:43:04.370Z,73.58
2023-03-15T23:45:34.129Z,73.03
2023-03-15T23:48:05.962Z,73.09
2023-03-15T23:50:34.739Z,73.40
2023-03-15T23:53:03.807Z,73.14
2023-03-15T23:55:33.505Z,73.00
2023-03-15T23:58:02.997Z,73.58
